createdAt,value
2017-07-01T00:00:11.375Z,100275.91
2017-07-01T00:00:29.371Z,100275.80
2017-07-01T00:00:50.690Z,100272.91
2017-07-01T00:01:08.064Z,100275.20
2017-07-01T00:01:26.802Z,100273.02
2017-07-01T00:01:44.207Z,100273.85
2017-07-01T00:02:06.226Z,100272.91
2017-07-01T00:02:26.910Z,100270.61
2017-07-01T00:02:46.343Z,100277.51
2017-07-01T00:03:07.344Z,100273.12
2017-07-01T00:03:29.341Z,100270.13
2017-07-01T00:03:48.011Z,100277.72
2017-07-01T00:04:07.158Z,100273.12
2017-07-01T00:04:29.279Z,100274.37
2017-07-01T00:04:50.886Z,100278.97
2017-07-01T00:05:05.730Z,100278.34
2017-07-01T00:05:24.310Z,100274.80
2017-07-01T00:05:43.308Z,100275.73
2017-07-01T00:06:05.024Z,100274.90
2017-07-01T00:06:26.015Z,100272.60
2017-07-01T00:06:47.297Z,100271.14
2017-07-01T00:07:04.296Z,100275.63
2017-07-01T00:07:22.288Z,100274.55
2017-07-01T00:07:46.091Z,100268.73
2017-07-01T00:08:11.690Z,100275.52
2017-07-01T00:08:28.283Z,100271.97
2017-07-01T00:08:46.201Z,100272.39
2017-07-01T00:09:08.955Z,100271.03
2017-07-01T00:09:32.794Z,100274.55
2017-07-01T00:09:51.323Z,100270.20
2017-07-01T00:10:12.252Z,100274.97
2017-07-01T00:10:29.657Z,100276.73
2017-07-01T00:10:50.246Z,100275.91
2017-07-01T00:11:10.241Z,100275.63
2017-07-01T00:11:30.047Z,100270.72
2017-07-01T00:11:50.234Z,100276.56
2017-07-01T00:12:08.543Z,100272.39
2017-07-01T00:12:28.225Z,100277.40
2017-07-01T00:12:51.222Z,100267.48
2017-07-01T00:13:08.557Z,100267.37
2017-07-01T00:13:26.796Z,100271.55
2017-07-01T00:13:46.642Z,100271.66
2017-07-01T00:14:06.609Z,100275.20
2017-07-01T00:14:24.323Z,100274.37
2017-07-01T00:14:41.234Z,100272.19
2017-07-01T00:15:01.195Z,100272.60
2017-07-01T00:15:22.190Z,100273.12
2017-07-01T00:15:43.891Z,100273.12
2017-07-01T00:16:03.139Z,100274.37
2017-07-01T00:16:24.178Z,100268.42
2017-07-01T00:16:44.173Z,100270.61
2017-07-01T00:17:01.095Z,100273.44
2017-07-01T00:17:21.271Z,100273.54
2017-07-01T00:17:46.161Z,100272.71
2017-07-01T00:18:04.588Z,100272.29
2017-07-01T00:18:20.763Z,100273.54
2017-07-01T00:18:40.149Z,100270.72
2017-07-01T00:19:02.038Z,100270.30
2017-07-01T00:19:24.361Z,100271.77
2017-07-01T00:19:46.887Z,100271.77
2017-07-01T00:20:06.138Z,100270.41
2017-07-01T00:20:29.071Z,100273.12
2017-07-01T00:20:50.579Z,100268.11
2017-07-01T00:21:14.124Z,100271.88
2017-07-01T00:21:38.114Z,100267.70
2017-07-01T00:22:00.517Z,100271.08
2017-07-01T00:22:24.989Z,100269.83
2017-07-01T00:22:45.980Z,100266.86
2017-07-01T00:23:07.096Z,100267.42
2017-07-01T00:23:27.123Z,100265.09
2017-07-01T00:23:44.346Z,100270.41
2017-07-01T00:24:00.733Z,100269.05
2017-07-01T00:24:21.083Z,100266.34
2017-07-01T00:24:44.076Z,100270.41
2017-07-01T00:25:04.091Z,100270.72
2017-07-01T00:25:28.694Z,100268.11
2017-07-01T00:25:48.063Z,100269.78
2017-07-01T00:26:11.070Z,100272.39
2017-07-01T00:26:30.854Z,100271.14
2017-07-01T00:26:48.564Z,100270.48
2017-07-01T00:27:07.821Z,100271.14
2017-07-01T00:27:24.512Z,100269.78
2017-07-01T00:27:49.043Z,100272.19
2017-07-01T00:28:09.035Z,100273.65
2017-07-01T00:28:31.989Z,100267.70
2017-07-01T00:28:48.990Z,100270.41
2017-07-01T00:29:09.024Z,100264.05
2017-07-01T00:29:30.563Z,100268.11
2017-07-01T00:29:49.015Z,100266.86
2017-07-01T00:30:08.555Z,100266.45
2017-07-01T00:30:33.008Z,100271.59
2017-07-01T00:30:50.539Z,100267.52
2017-07-01T00:31:13.483Z,100271.48
2017-07-01T00:31:32.993Z,100269.16
2017-07-01T00:31:55.990Z,100262.38
2017-07-01T00:32:16.029Z,100269.99
2017-07-01T00:32:37.980Z,100271.77
2017-07-01T00:32:56.978Z,100266.34
2017-07-01T00:33:14.009Z,100265.92
2017-07-01T00:33:34.067Z,100271.88
2017-07-01T00:33:54.966Z,100272.84
2017-07-01T00:34:15.962Z,100262.38
2017-07-01T00:34:36.433Z,100271.88
2017-07-01T00:34:55.377Z,100270.13
2017-07-01T00:35:13.730Z,100265.75
2017-07-01T00:35:29.882Z,100268.88
2017-07-01T00:35:48.523Z,100271.48
2017-07-01T00:36:06.957Z,100269.72
2017-07-01T00:36:29.889Z,100268.77
2017-07-01T00:36:51.930Z,100271.35
2017-07-01T00:37:12.191Z,100274.20
2017-07-01T00:37:28.463Z,100271.35
2017-07-01T00:37:48.659Z,100268.22
2017-07-01T00:38:08.513Z,100266.59
2017-07-01T00:38:25.497Z,100272.02
2017-07-01T00:38:41.474Z,100267.94
2017-07-01T00:39:04.620Z,100269.16
2017-07-01T00:39:25.298Z,100272.95
2017-07-01T00:39:46.893Z,100274.20
2017-07-01T00:40:09.030Z,100276.19
2017-07-01T00:40:27.885Z,100275.66
2017-07-01T00:40:47.880Z,100274.59
2017-07-01T00:41:05.878Z,100274.59
2017-07-01T00:41:23.984Z,100275.95
2017-07-01T00:41:43.026Z,100272.02
2017-07-01T00:42:04.427Z,100274.73
2017-07-01T00:42:23.068Z,100273.38
2017-07-01T00:42:46.718Z,100275.66
2017-07-01T00:43:08.334Z,100279.32
2017-07-01T00:43:28.849Z,100273.38
2017-07-01T00:43:46.843Z,100275.56
2017-07-01T00:44:07.839Z,100271.08
2017-07-01T00:44:26.094Z,100276.50
2017-07-01T00:44:45.607Z,100271.28
2017-07-01T00:45:07.524Z,100281.03
2017-07-01T00:45:27.823Z,100272.89
2017-07-01T00:45:46.572Z,100274.00
2017-07-01T00:46:03.943Z,100273.16
2017-07-01T00:46:24.628Z,100271.39
2017-07-01T00:46:44.810Z,100274.94
2017-07-01T00:47:04.803Z,100274.00
2017-07-01T00:47:25.799Z,100270.55
2017-07-01T00:47:43.811Z,100274.94
2017-07-01T00:48:01.393Z,100274.63
2017-07-01T00:48:21.673Z,100273.41
2017-07-01T00:48:38.774Z,100271.80
2017-07-01T00:48:58.537Z,100269.20
2017-07-01T00:49:20.654Z,100272.47
2017-07-01T00:49:37.447Z,100270.38
2017-07-01T00:49:57.925Z,100268.50
2017-07-01T00:50:17.074Z,100274.63
2017-07-01T00:50:37.769Z,100272.99
2017-07-01T00:50:56.764Z,100272.05
2017-07-01T00:51:18.326Z,100276.95
2017-07-01T00:51:38.749Z,100280.89
2017-07-01T00:51:59.271Z,100272.68
2017-07-01T00:52:19.740Z,100271.74
2017-07-01T00:52:37.742Z,100277.06
2017-07-01T00:52:58.151Z,100276.54
2017-07-01T00:53:17.195Z,100273.41
2017-07-01T00:53:37.372Z,100270.28
2017-07-01T00:54:01.720Z,100273.69
2017-07-01T00:54:18.841Z,100273.58
2017-07-01T00:54:40.247Z,100275.36
2017-07-01T00:55:02.666Z,100274.00
2017-07-01T00:55:22.534Z,100273.06
2017-07-01T00:55:44.342Z,100274.24
2017-07-01T00:56:06.168Z,100280.47
2017-07-01T00:56:21.695Z,100271.11
2017-07-01T00:56:42.686Z,100274.11
2017-07-01T00:56:58.889Z,100280.61
2017-07-01T00:57:18.244Z,100273.41
2017-07-01T00:57:36.476Z,100277.27
2017-07-01T00:57:57.057Z,100275.81
2017-07-01T00:58:19.091Z,100276.33
2017-07-01T00:58:37.663Z,100278.94
2017-07-01T00:58:57.371Z,100274.35
2017-07-01T00:59:18.775Z,100271.11
2017-07-01T00:59:38.653Z,100270.28
2017-07-01T00:59:56.357Z,100272.99
2017-07-01T01:00:12.223Z,100275.70
2017-07-01T01:00:32.639Z,100278.00
2017-07-01T01:00:51.749Z,100276.12
2017-07-01T01:01:10.632Z,100270.70
2017-07-01T01:01:28.640Z,100273.69
2017-07-01T01:01:46.624Z,100272.33
2017-07-01T01:02:05.621Z,100275.05
2017-07-01T01:02:23.500Z,100278.17
2017-07-01T01:02:45.413Z,100278.17
2017-07-01T01:03:06.099Z,100275.60
2017-07-01T01:03:29.603Z,100276.12
2017-07-01T01:03:49.518Z,100278.31
2017-07-01T01:04:10.598Z,100278.70
2017-07-01T01:04:30.170Z,100281.03
2017-07-01T01:04:50.626Z,100276.12
2017-07-01T01:05:11.583Z,100273.83
2017-07-01T01:05:31.582Z,100277.90
2017-07-01T01:05:53.575Z,100275.81
2017-07-01T01:06:15.434Z,100277.17
2017-07-01T01:06:37.565Z,100279.78
2017-07-01T01:06:59.880Z,100279.36
2017-07-01T01:07:19.435Z,100278.63
2017-07-01T01:07:40.015Z,100281.34
2017-07-01T01:08:02.648Z,100282.01
2017-07-01T01:08:21.491Z,100279.57
2017-07-01T01:08:42.382Z,100279.05
2017-07-01T01:08:59.276Z,100279.57
2017-07-01T01:09:15.662Z,100274.67
2017-07-01T01:09:32.967Z,100278.63
2017-07-01T01:09:52.835Z,100285.00
2017-07-01T01:10:09.621Z,100281.70
2017-07-01T01:10:28.518Z,100278.98
2017-07-01T01:10:50.520Z,100278.05
2017-07-01T01:11:12.295Z,100276.58
2017-07-01T01:11:32.264Z,100277.69
2017-07-01T01:11:53.462Z,100279.70
2017-07-01T01:12:12.299Z,100286.36
2017-07-01T01:12:30.630Z,100284.72
2017-07-01T01:12:47.494Z,100284.16
2017-07-01T01:13:09.846Z,100281.77
2017-07-01T01:13:33.480Z,100277.80
2017-07-01T01:13:54.299Z,100278.11
2017-07-01T01:14:15.473Z,100278.63
2017-07-01T01:14:35.046Z,100279.88
2017-07-01T01:14:56.243Z,100278.63
2017-07-01T01:15:19.461Z,100274.04
2017-07-01T01:15:40.896Z,100282.08
2017-07-01T01:16:01.677Z,100285.14
2017-07-01T01:16:22.448Z,100276.02
2017-07-01T01:16:42.445Z,100285.94
2017-07-01T01:17:03.438Z,100285.24
2017-07-01T01:17:24.443Z,100280.52
2017-07-01T01:17:41.307Z,100277.00
2017-07-01T01:18:01.427Z,100279.16
2017-07-01T01:18:20.327Z,100282.18
2017-07-01T01:18:39.060Z,100280.72
2017-07-01T01:19:01.417Z,100279.78
2017-07-01T01:19:16.854Z,100281.13
2017-07-01T01:19:36.517Z,100279.47
2017-07-01T01:19:54.635Z,100280.30
2017-07-01T01:20:12.253Z,100280.61
2017-07-01T01:20:35.902Z,100281.77
2017-07-01T01:20:57.104Z,100281.23
2017-07-01T01:21:18.193Z,100278.11
2017-07-01T01:21:37.143Z,100280.82
2017-07-01T01:21:55.406Z,100281.23
2017-07-01T01:22:15.374Z,100279.57
2017-07-01T01:22:33.371Z,100283.64
2017-07-01T01:22:53.369Z,100281.59
2017-07-01T01:23:12.268Z,100277.94
2017-07-01T01:23:31.184Z,100284.52
2017-07-01T01:23:53.365Z,100285.24
2017-07-01T01:24:13.092Z,100276.79
2017-07-01T01:24:33.354Z,100287.85
2017-07-01T01:24:52.829Z,100285.14
2017-07-01T01:25:11.339Z,100280.09
2017-07-01T01:25:31.337Z,100282.81
2017-07-01T01:25:50.174Z,100285.94
2017-07-01T01:26:11.334Z,100287.02
2017-07-01T01:26:28.671Z,100285.94
2017-07-01T01:26:49.320Z,100284.16
2017-07-01T01:27:12.316Z,100285.94
2017-07-01T01:27:29.497Z,100283.78
2017-07-01T01:27:49.583Z,100286.08
2017-07-01T01:28:11.273Z,100285.14
2017-07-01T01:28:27.142Z,100285.14
2017-07-01T01:28:43.836Z,100282.81
2017-07-01T01:29:00.837Z,100280.52
2017-07-01T01:29:21.288Z,100287.85
2017-07-01T01:29:45.289Z,100286.70
2017-07-01T01:30:06.986Z,100282.95
2017-07-01T01:30:28.077Z,100283.88
2017-07-01T01:30:48.270Z,100286.59
2017-07-01T01:31:06.488Z,100287.02
2017-07-01T01:31:26.272Z,100285.24
2017-07-01T01:31:43.852Z,100284.09
2017-07-01T01:32:03.518Z,100282.64
2017-07-01T01:32:24.917Z,100283.88
2017-07-01T01:32:45.250Z,100283.47
2017-07-01T01:33:04.752Z,100286.59
2017-07-01T01:33:21.137Z,100278.88
2017-07-01T01:33:38.953Z,100290.14
2017-07-01T01:33:55.238Z,100287.95
2017-07-01T01:34:17.764Z,100289.07
2017-07-01T01:34:34.225Z,100286.08
2017-07-01T01:34:48.483Z,100281.59
2017-07-01T01:35:10.217Z,100284.93
2017-07-01T01:35:32.214Z,100283.88
2017-07-01T01:35:52.178Z,100286.39
2017-07-01T01:36:10.207Z,100287.33
2017-07-01T01:36:29.962Z,100283.58
2017-07-01T01:36:48.801Z,100289.00
2017-07-01T01:37:08.768Z,100280.55
2017-07-01T01:37:26.189Z,100284.41
2017-07-01T01:37:45.017Z,100284.52
2017-07-01T01:38:03.452Z,100283.41
2017-07-01T01:38:22.025Z,100283.27
2017-07-01T01:38:41.175Z,100283.16
2017-07-01T01:38:57.930Z,100286.19
2017-07-01T01:39:19.736Z,100283.50
2017-07-01T01:39:38.898Z,100278.39
2017-07-01T01:39:59.265Z,100283.16
2017-07-01T01:40:21.154Z,100283.41
2017-07-01T01:40:42.158Z,100284.76
2017-07-01T01:41:06.148Z,100279.75
2017-07-01T01:41:24.825Z,100293.53
2017-07-01T01:41:40.206Z,100279.44
2017-07-01T01:42:00.145Z,100282.05
2017-07-01T01:42:19.349Z,100281.84
2017-07-01T01:42:38.127Z,100286.64
2017-07-01T01:42:57.124Z,100281.21
2017-07-01T01:43:15.769Z,100280.80
2017-07-01T01:43:37.068Z,100279.85
2017-07-01T01:43:56.633Z,100280.69
2017-07-01T01:44:16.112Z,100279.85
2017-07-01T01:44:34.311Z,100278.50
2017-07-01T01:44:54.894Z,100280.13
2017-07-01T01:45:13.323Z,100281.28
2017-07-01T01:45:35.450Z,100281.70
2017-07-01T01:45:56.104Z,100281.80
2017-07-01T01:46:15.379Z,100282.01
2017-07-01T01:46:34.945Z,100281.80
2017-07-01T01:46:55.009Z,100283.92
2017-07-01T01:47:14.070Z,100275.27
2017-07-01T01:47:35.067Z,100276.72
2017-07-01T01:47:52.686Z,100279.19
2017-07-01T01:48:11.807Z,100279.09
2017-07-01T01:48:27.883Z,100284.93
2017-07-01T01:48:47.872Z,100280.55
2017-07-01T01:49:06.597Z,100279.92
2017-07-01T01:49:24.717Z,100280.86
2017-07-01T01:49:42.060Z,100286.92
2017-07-01T01:50:03.088Z,100280.69
2017-07-01T01:50:21.853Z,100277.73
2017-07-01T01:50:41.036Z,100282.46
2017-07-01T01:51:05.023Z,100281.10
2017-07-01T01:51:25.028Z,100281.38
2017-07-01T01:51:45.720Z,100285.98
2017-07-01T01:52:05.996Z,100282.46
2017-07-01T01:52:25.763Z,100286.22
2017-07-01T01:52:43.578Z,100278.91
2017-07-01T01:53:02.023Z,100285.56
2017-07-01T01:53:21.044Z,100286.81
2017-07-01T01:53:39.702Z,100280.13
2017-07-01T01:53:55.261Z,100282.05
2017-07-01T01:54:17.509Z,100279.33
2017-07-01T01:54:37.138Z,100285.04
2017-07-01T01:54:52.976Z,100282.22
2017-07-01T01:55:12.160Z,100281.28
2017-07-01T01:55:30.282Z,100278.56
2017-07-01T01:55:48.969Z,100279.09
2017-07-01T01:56:07.017Z,100281.38
2017-07-01T01:56:24.369Z,100278.25
2017-07-01T01:56:43.603Z,100275.13
2017-07-01T01:57:02.855Z,100279.61
2017-07-01T01:57:24.065Z,100275.02
2017-07-01T01:57:46.169Z,100280.86
2017-07-01T01:58:07.941Z,100282.73
2017-07-01T01:58:29.895Z,100279.50
2017-07-01T01:58:50.578Z,100283.61
2017-07-01T01:59:07.945Z,100281.21
2017-07-01T01:59:29.696Z,100280.77
2017-07-01T01:59:47.408Z,100280.45
2017-07-01T02:00:06.915Z,100279.83
2017-07-01T02:00:28.910Z,100281.70
2017-07-01T02:00:47.905Z,100281.88
2017-07-01T02:01:08.614Z,100279.58
2017-07-01T02:01:27.899Z,100288.97
2017-07-01T02:01:48.035Z,100279.58
2017-07-01T02:02:09.337Z,100281.14
2017-07-01T02:02:28.176Z,100277.87
2017-07-01T02:02:46.310Z,100276.10
2017-07-01T02:03:06.683Z,100285.59
2017-07-01T02:03:25.829Z,100279.89
2017-07-01T02:03:45.286Z,100280.83
2017-07-01T02:04:03.512Z,100280.72
2017-07-01T02:04:21.431Z,100283.55
2017-07-01T02:04:40.066Z,100279.58
2017-07-01T02:05:00.852Z,100281.25
2017-07-01T02:05:17.954Z,100283.30
2017-07-01T02:05:38.025Z,100283.72
2017-07-01T02:05:57.584Z,100279.78
2017-07-01T02:06:16.633Z,100280.48
2017-07-01T02:06:35.847Z,100285.59
2017-07-01T02:06:51.829Z,100285.21
2017-07-01T02:07:14.845Z,100283.86
2017-07-01T02:07:32.894Z,100283.44
2017-07-01T02:07:49.817Z,100282.30
2017-07-01T02:08:13.471Z,100278.22
2017-07-01T02:08:51.811Z,100278.02
2017-07-01T02:09:11.426Z,100281.66
2017-07-01T02:09:29.346Z,100287.38
2017-07-01T02:09:45.327Z,100285.95
2017-07-01T02:10:04.829Z,100279.16
2017-07-01T02:10:27.614Z,100287.61
2017-07-01T02:10:50.243Z,100280.94
2017-07-01T02:11:08.879Z,100287.41
2017-07-01T02:11:26.221Z,100284.59
2017-07-01T02:12:10.807Z,100283.55
2017-07-01T02:12:32.761Z,100283.55
2017-07-01T02:12:53.768Z,100287.72
2017-07-01T02:13:14.825Z,100288.14
2017-07-01T02:13:30.787Z,100285.11
2017-07-01T02:13:50.746Z,100281.05
2017-07-01T02:14:13.713Z,100284.80
2017-07-01T02:14:34.756Z,100281.53
2017-07-01T02:14:58.462Z,100287.09
2017-07-01T02:15:19.730Z,100282.89
2017-07-01T02:15:40.963Z,100294.40
2017-07-01T02:16:08.721Z,100282.30
2017-07-01T02:16:48.647Z,100281.66
2017-07-01T02:17:20.511Z,100281.25
2017-07-01T02:17:44.698Z,100281.95
2017-07-01T02:18:12.691Z,100281.14
2017-07-01T02:18:35.705Z,100280.17
2017-07-01T02:18:57.360Z,100281.84
2017-07-01T02:19:17.223Z,100285.59
2017-07-01T02:19:36.675Z,100277.87
2017-07-01T02:19:56.548Z,100284.13
2017-07-01T02:20:22.666Z,100280.38
2017-07-01T02:20:46.729Z,100281.53
2017-07-01T02:21:16.640Z,100287.79
2017-07-01T02:21:55.229Z,100281.25
2017-07-01T02:22:58.692Z,100284.06
2017-07-01T02:23:20.530Z,100280.83
2017-07-01T02:23:57.597Z,100289.08
2017-07-01T02:24:18.667Z,100283.02
2017-07-01T02:24:35.745Z,100288.24
2017-07-01T02:25:04.608Z,100283.96
2017-07-01T02:25:35.284Z,100281.66
2017-07-01T02:26:03.956Z,100283.12
2017-07-01T02:26:24.337Z,100281.25
2017-07-01T02:26:44.588Z,100287.61
2017-07-01T02:27:05.399Z,100279.06
2017-07-01T02:27:21.990Z,100287.51
2017-07-01T02:27:40.219Z,100283.44
2017-07-01T02:28:02.574Z,100285.21
2017-07-01T02:28:25.476Z,100278.02
2017-07-01T02:28:45.631Z,100282.19
2017-07-01T02:29:14.218Z,100284.37
2017-07-01T02:29:35.418Z,100284.59
2017-07-01T02:29:54.665Z,100283.89
2017-07-01T02:30:13.812Z,100284.17
2017-07-01T02:30:31.454Z,100285.42
2017-07-01T02:30:49.651Z,100286.78
2017-07-01T02:31:11.977Z,100283.23
2017-07-01T02:31:34.913Z,100283.96
2017-07-01T02:31:58.531Z,100284.94
2017-07-01T02:32:15.259Z,100284.83
2017-07-01T02:32:32.361Z,100285.39
2017-07-01T02:33:02.466Z,100290.30
2017-07-01T02:33:24.893Z,100285.46
2017-07-01T02:34:05.499Z,100294.44
2017-07-01T02:34:28.997Z,100286.36
2017-07-01T02:34:57.539Z,100285.84
2017-07-01T02:35:16.005Z,100290.26
2017-07-01T02:35:33.299Z,100282.92
2017-07-01T02:35:57.978Z,100285.25
2017-07-01T02:36:26.470Z,100283.89
2017-07-01T02:36:47.485Z,100287.55
2017-07-01T02:37:06.687Z,100285.63
2017-07-01T02:37:28.101Z,100290.78
2017-07-01T02:37:44.681Z,100287.13
2017-07-01T02:38:07.453Z,100286.19
2017-07-01T02:38:27.446Z,100290.12
2017-07-01T02:38:49.089Z,100286.61
2017-07-01T02:39:10.471Z,100287.13
2017-07-01T02:39:35.065Z,100285.88
2017-07-01T02:39:58.002Z,100283.58
2017-07-01T02:40:16.130Z,100288.59
2017-07-01T02:40:40.420Z,100291.30
2017-07-01T02:41:00.446Z,100282.75
2017-07-01T02:41:21.419Z,100283.69
2017-07-01T02:41:43.459Z,100283.48
2017-07-01T02:42:04.402Z,100285.36
2017-07-01T02:42:25.155Z,100287.23
2017-07-01T02:42:43.430Z,100285.25
2017-07-01T02:43:04.408Z,100285.98
2017-07-01T02:43:21.070Z,100294.78
2017-07-01T02:43:37.752Z,100290.05
2017-07-01T02:43:53.395Z,100290.47
2017-07-01T02:44:16.384Z,100290.99
2017-07-01T02:44:36.530Z,100291.52
2017-07-01T02:44:55.495Z,100284.20
2017-07-01T02:45:14.374Z,100285.36
2017-07-01T02:45:53.369Z,100291.72
2017-07-01T02:46:23.027Z,100285.77
2017-07-01T02:46:45.154Z,100287.65
2017-07-01T02:47:08.366Z,100284.52
2017-07-01T02:47:36.037Z,100288.70
2017-07-01T02:47:56.935Z,100287.23
2017-07-01T02:48:32.872Z,100286.71
2017-07-01T02:49:10.332Z,100285.95
2017-07-01T02:49:28.347Z,100286.47
2017-07-01T02:50:01.444Z,100292.31
2017-07-01T02:50:36.162Z,100295.59
2017-07-01T02:51:10.871Z,100293.18
2017-07-01T02:51:37.229Z,100290.58
2017-07-01T02:52:06.280Z,100289.95
2017-07-01T02:52:27.339Z,100292.24
2017-07-01T02:53:05.266Z,100291.30
2017-07-01T02:53:25.924Z,100292.34
2017-07-01T02:53:43.321Z,100294.89
2017-07-01T02:54:01.066Z,100285.81
2017-07-01T02:54:26.357Z,100291.97
2017-07-01T02:54:59.231Z,100288.42
2017-07-01T02:55:30.236Z,100291.45
2017-07-01T02:56:11.211Z,100286.33
2017-07-01T02:56:35.788Z,100283.12
2017-07-01T02:56:54.733Z,100285.60
2017-07-01T02:57:12.219Z,100286.89
2017-07-01T02:57:35.212Z,100281.47
2017-07-01T02:57:54.843Z,100287.06
2017-07-01T02:58:16.961Z,100281.53
2017-07-01T02:58:37.949Z,100283.66
2017-07-01T02:59:03.557Z,100284.35
2017-07-01T02:59:39.495Z,100280.28
2017-07-01T03:00:00.793Z,100288.42
2017-07-01T03:00:24.204Z,100278.92
2017-07-01T03:00:42.672Z,100278.41
2017-07-01T03:01:01.927Z,100278.72
2017-07-01T03:01:21.078Z,100281.32
2017-07-01T03:01:41.862Z,100283.09
2017-07-01T03:02:02.217Z,100285.29
2017-07-01T03:02:21.157Z,100279.03
2017-07-01T03:02:45.154Z,100274.44
2017-07-01T03:03:14.953Z,100278.89
2017-07-01T03:03:35.120Z,100284.45
2017-07-01T03:03:56.140Z,100277.67
2017-07-01T03:04:13.192Z,100282.02
2017-07-01T03:04:32.161Z,100280.66
2017-07-01T03:04:57.344Z,100277.15
2017-07-01T03:05:17.316Z,100276.07
2017-07-01T03:05:34.719Z,100283.52
2017-07-01T03:05:51.925Z,100280.25
2017-07-01T03:06:12.715Z,100279.55
2017-07-01T03:06:29.911Z,100279.34
2017-07-01T03:06:47.318Z,100280.07
2017-07-01T03:07:04.010Z,100280.28
2017-07-01T03:07:26.640Z,100282.19
2017-07-01T03:07:45.586Z,100279.48
2017-07-01T03:08:08.087Z,100286.95
2017-07-01T03:08:30.083Z,100286.02
2017-07-01T03:08:53.078Z,100285.33
2017-07-01T03:09:13.649Z,100280.70
2017-07-01T03:09:34.234Z,100281.11
2017-07-01T03:09:52.786Z,100282.89
2017-07-01T03:10:12.747Z,100284.66
2017-07-01T03:10:30.652Z,100282.89
2017-07-01T03:10:49.289Z,100283.12
2017-07-01T03:11:06.046Z,100281.64
2017-07-01T03:11:23.697Z,100282.19
2017-07-01T03:11:42.047Z,100281.25
2017-07-01T03:12:01.688Z,100272.98
2017-07-01T03:12:19.916Z,100279.13
2017-07-01T03:12:36.814Z,100277.88
2017-07-01T03:12:54.937Z,100278.72
2017-07-01T03:13:17.021Z,100278.61
2017-07-01T03:13:38.459Z,100279.13
2017-07-01T03:13:54.941Z,100273.39
2017-07-01T03:14:17.010Z,100274.23
2017-07-01T03:14:35.493Z,100277.46
2017-07-01T03:14:52.489Z,100278.30
2017-07-01T03:15:17.043Z,100278.30
2017-07-01T03:15:34.574Z,100279.97
2017-07-01T03:15:54.747Z,100277.88
2017-07-01T03:16:18.402Z,100283.41
2017-07-01T03:16:37.243Z,100273.81
2017-07-01T03:16:54.003Z,100272.56
2017-07-01T03:17:12.575Z,100269.22
2017-07-01T03:17:30.697Z,100268.63
2017-07-01T03:17:50.968Z,100268.08
2017-07-01T03:18:10.632Z,100267.55
2017-07-01T03:18:31.958Z,100268.08
2017-07-01T03:18:54.361Z,100271.03
2017-07-01T03:19:14.328Z,100265.30
2017-07-01T03:19:33.064Z,100264.45
2017-07-01T03:19:56.723Z,100264.66
2017-07-01T03:20:19.248Z,100266.12
2017-07-01T03:20:36.974Z,100265.36
2017-07-01T03:20:58.927Z,100267.13
2017-07-01T03:21:15.675Z,100267.97
2017-07-01T03:21:36.919Z,100265.25
2017-07-01T03:21:53.047Z,100264.31
2017-07-01T03:22:09.344Z,100264.14
2017-07-01T03:22:28.477Z,100257.11
2017-07-01T03:22:45.993Z,100264.31
2017-07-01T03:23:07.392Z,100259.83
2017-07-01T03:23:25.824Z,100262.12
2017-07-01T03:23:42.614Z,100260.91
2017-07-01T03:24:05.908Z,100258.05
2017-07-01T03:24:26.348Z,100261.08
2017-07-01T03:24:48.562Z,100266.72
2017-07-01T03:25:06.381Z,100259.30
2017-07-01T03:26:38.842Z,100253.88
2017-07-01T03:26:57.857Z,100255.87
2017-07-01T03:27:16.910Z,100258.47
2017-07-01T03:27:36.599Z,100257.11
2017-07-01T03:27:54.919Z,100252.62
2017-07-01T03:28:15.847Z,100252.21
2017-07-01T03:28:37.118Z,100247.20
2017-07-01T03:28:58.832Z,100251.27
2017-07-01T03:29:27.895Z,100249.91
2017-07-01T03:29:49.002Z,100255.66
2017-07-01T03:30:15.114Z,100250.64
2017-07-01T03:30:33.036Z,100246.58
2017-07-01T03:30:53.617Z,100249.39
2017-07-01T03:31:11.818Z,100249.29
2017-07-01T03:31:33.801Z,100244.80
2017-07-01T03:31:53.797Z,100251.80
2017-07-01T03:32:16.830Z,100245.15
2017-07-01T03:32:37.787Z,100248.56
2017-07-01T03:32:58.244Z,100242.20
2017-07-01T03:33:16.360Z,100245.22
2017-07-01T03:33:41.834Z,100244.28
2017-07-01T03:34:02.770Z,100246.05
2017-07-01T03:34:27.834Z,100244.91
2017-07-01T03:34:49.760Z,100249.12
2017-07-01T03:35:09.616Z,100251.73
2017-07-01T03:35:30.714Z,100244.66
2017-07-01T03:35:49.248Z,100244.77
2017-07-01T03:36:10.744Z,100243.83
2017-07-01T03:36:32.457Z,100244.36
2017-07-01T03:36:57.732Z,100237.98
2017-07-01T03:37:37.746Z,100244.25
2017-07-01T03:38:53.258Z,100237.33
2017-07-01T03:39:26.702Z,100243.11
2017-07-01T03:39:57.696Z,100243.31
2017-07-01T03:40:23.571Z,100243.59
2017-07-01T03:41:09.242Z,100244.42
2017-07-01T03:42:03.671Z,100246.02
2017-07-01T03:43:29.655Z,100241.75
2017-07-01T03:44:06.293Z,100248.18
2017-07-01T03:44:57.651Z,100240.87
2017-07-01T03:45:32.219Z,100238.83
2017-07-01T03:45:58.423Z,100243.31
2017-07-01T03:46:26.283Z,100242.12
2017-07-01T03:46:48.618Z,100244.42
2017-07-01T03:47:08.979Z,100240.08
2017-07-01T03:47:46.606Z,100242.69
2017-07-01T03:48:04.599Z,100238.52
2017-07-01T03:48:26.083Z,100233.61
2017-07-01T03:49:08.586Z,100243.11
2017-07-01T03:49:37.579Z,100233.95
2017-07-01T03:49:58.348Z,100241.99
2017-07-01T03:50:22.570Z,100239.95
2017-07-01T03:50:44.846Z,100239.56
2017-07-01T03:51:06.562Z,100234.31
2017-07-01T03:51:24.977Z,100236.92
2017-07-01T03:51:42.283Z,100242.06
2017-07-01T03:52:03.065Z,100239.63
2017-07-01T03:52:22.321Z,100238.90
2017-07-01T03:52:41.284Z,100234.69
2017-07-01T03:53:19.358Z,100238.13
2017-07-01T03:53:38.712Z,100244.28
2017-07-01T03:54:00.529Z,100237.92
2017-07-01T03:54:23.525Z,100243.21
2017-07-01T03:54:45.517Z,100236.43
2017-07-01T03:55:09.514Z,100236.32
2017-07-01T03:55:31.511Z,100240.70
2017-07-01T03:55:52.958Z,100240.50
2017-07-01T03:56:10.155Z,100244.28
2017-07-01T03:56:29.106Z,100243.34
2017-07-01T03:56:47.646Z,100237.92
2017-07-01T03:57:07.494Z,100239.66
2017-07-01T03:57:33.108Z,100246.34
2017-07-01T03:57:56.481Z,100240.91
2017-07-01T03:58:24.473Z,100246.58
2017-07-01T03:58:47.241Z,100244.28
2017-07-01T03:59:04.503Z,100247.94
2017-07-01T03:59:25.031Z,100242.80
2017-07-01T03:59:47.966Z,100237.68
2017-07-01T04:00:06.601Z,100244.88
2017-07-01T04:00:25.851Z,100247.07
2017-07-01T04:00:43.673Z,100242.58
2017-07-01T04:01:08.554Z,100248.01
2017-07-01T04:01:25.854Z,100243.45
2017-07-01T04:01:46.234Z,100241.02
2017-07-01T04:02:04.871Z,100247.70
2017-07-01T04:02:27.424Z,100245.81
2017-07-01T04:02:45.317Z,100243.52
2017-07-01T04:03:06.413Z,100247.77
2017-07-01T04:03:23.423Z,100245.30
2017-07-01T04:03:46.407Z,100245.19
2017-07-01T04:04:09.403Z,100248.18